Archival Weather

Aeroparque Jorge Newbery

Buenos Aires, Argentina (SABE)

Report from: Tuesday, September 19, 2023 6:00 AM -03
Current time: Tuesday, July 16, 2024 7:21 AM -03

Current weather – Weather history – Daily summaries
Weather forecast

Temperature11.0°C (51.8°F)
Dew point8.0°C (46.4°F)
Winds 8 kts (4.1 m/s, 9.2 mph) Vrb
Winds variableWinds variable from East-Southeast (120°) to South (190°)
Visibility5.6 mi. (9 km)
Clouds Ceiling: Broken clouds 2,400 ft. (732 m)
Altimeter30.15 in.Hg (1021 mB)
Relative humidity82 %
Density altitude-586 ft. (-179 m)
Remarks Corrected report
No significant changes expected in the next two hours
Flight conditions Marginal Visual Meteorological Conditions
Raw dataCOR SABE 190900Z 15008KT 120V190 9000 BKN024 11/08 Q1021 NOSIG RMK PP000
An error has occurred. This application may no longer respond until reloaded. Reload 🗙